sensor_id;sensor_type;location;lat;lon;timestamp;pressure;altitude;pressure_sealevel;temperature;humidity
57799;BME280;43626;53.866;30.298;2022-10-24T00:04:14;1021.5;;;10.1;72.5
57799;BME280;43626;53.866;30.298;2022-10-24T00:08:58;1021.5;;;10.1;72.3
57799;BME280;43626;53.866;30.298;2022-10-24T00:13:44;1021.5;;;10.1;72.1
57799;BME280;43626;53.866;30.298;2022-10-24T00:18:58;1021.6;;;10.1;72
57799;BME280;43626;53.866;30.298;2022-10-24T00:24:24;1021.6;;;10.1;71.5
57799;BME280;43626;53.866;30.298;2022-10-24T00:29:22;1021.5;;;10.1;71.1
57799;BME280;43626;53.866;30.298;2022-10-24T00:33:44;1021.6;;;10;71
57799;BME280;43626;53.866;30.298;2022-10-24T00:39:14;1021.6;;;10;70.8
57799;BME280;43626;53.866;30.298;2022-10-24T00:44:15;1021.6;;;10;70.6
57799;BME280;43626;53.866;30.298;2022-10-24T00:49:19;1021.6;;;10;70.7
57799;BME280;43626;53.866;30.298;2022-10-24T00:54:18;1021.7;;;10;70.7
57799;BME280;43626;53.866;30.298;2022-10-24T00:59:22;1021.6;;;10;70.6
57799;BME280;43626;53.866;30.298;2022-10-24T01:03:58;1021.6;;;10;70.5
57799;BME280;43626;53.866;30.298;2022-10-24T01:08:45;1021.7;;;9.9;70.4
57799;BME280;43626;53.866;30.298;2022-10-24T01:14:25;1021.7;;;9.9;70.3
57799;BME280;43626;53.866;30.298;2022-10-24T01:19:28;1021.7;;;9.9;70.2
57799;BME280;43626;53.866;30.298;2022-10-24T01:24:30;1021.7;;;9.8;70
57799;BME280;43626;53.866;30.298;2022-10-24T01:29:04;1021.6;;;9.8;70
57799;BME280;43626;53.866;30.298;2022-10-24T01:34:25;1021.6;;;9.7;69.7
57799;BME280;43626;53.866;30.298;2022-10-24T01:39:25;1021.5;;;9.7;69.7
57799;BME280;43626;53.866;30.298;2022-10-24T01:43:45;1021.6;;;9.6;69.6
57799;BME280;43626;53.866;30.298;2022-10-24T01:49:21;1021.6;;;9.6;69.7
57799;BME280;43626;53.866;30.298;2022-10-24T01:53:44;1021.7;;;9.6;69.9
57799;BME280;43626;53.866;30.298;2022-10-24T01:59:06;1021.8;;;9.5;69.9
57799;BME280;43626;53.866;30.298;2022-10-24T02:03:57;1021.8;;;9.5;70.1
57799;BME280;43626;53.866;30.298;2022-10-24T02:09:09;1021.9;;;9.5;70.1
57799;BME280;43626;53.866;30.298;2022-10-24T02:14:29;1021.8;;;9.5;70.2
57799;BME280;43626;53.866;30.298;2022-10-24T02:19:16;1021.9;;;9.5;70.1
57799;BME280;43626;53.866;30.298;2022-10-24T02:23:46;1021.9;;;9.5;70.1
57799;BME280;43626;53.866;30.298;2022-10-24T02:29:27;1021.9;;;9.5;69.9
57799;BME280;43626;53.866;30.298;2022-10-24T02:34:29;1022.1;;;9.5;69.8
57799;BME280;43626;53.866;30.298;2022-10-24T02:39:28;1022.1;;;9.4;69.8
57799;BME280;43626;53.866;30.298;2022-10-24T02:43:44;1022.1;;;9.4;69.9
57799;BME280;43626;53.866;30.298;2022-10-24T02:49:00;1022.1;;;9.4;69.9
57799;BME280;43626;53.866;30.298;2022-10-24T02:54:32;1022.2;;;9.4;70
57799;BME280;43626;53.866;30.298;2022-10-24T02:59:20;1022.2;;;9.4;69.9
57799;BME280;43626;53.866;30.298;2022-10-24T03:04:12;1022.2;;;9.4;69.8
57799;BME280;43626;53.866;30.298;2022-10-24T03:09:18;1022.2;;;9.3;69.9
57799;BME280;43626;53.866;30.298;2022-10-24T03:14:14;1022.2;;;9.3;70
57799;BME280;43626;53.866;30.298;2022-10-24T03:19:06;1022.3;;;9.3;69.9
57799;BME280;43626;53.866;30.298;2022-10-24T03:24:22;1022.3;;;9.3;69.9
57799;BME280;43626;53.866;30.298;2022-10-24T03:29:30;1022.4;;;9.2;69.8
57799;BME280;43626;53.866;30.298;2022-10-24T03:34:00;1022.4;;;9.1;70
57799;BME280;43626;53.866;30.298;2022-10-24T03:39:00;1022.6;;;9.1;70.1
57799;BME280;43626;53.866;30.298;2022-10-24T03:44:30;1022.6;;;9.1;69.9
57799;BME280;43626;53.866;30.298;2022-10-24T03:49:30;1022.6;;;9.2;69.8
57799;BME280;43626;53.866;30.298;2022-10-24T03:54:30;1022.6;;;9.2;69.7
57799;BME280;43626;53.866;30.298;2022-10-24T03:59:04;1022.7;;;9.3;69.6
57799;BME280;43626;53.866;30.298;2022-10-24T04:04:28;1022.6;;;9.3;69.5
57799;BME280;43626;53.866;30.298;2022-10-24T04:09:30;1022.6;;;9.3;69.3
57799;BME280;43626;53.866;30.298;2022-10-24T04:13:54;1022.6;;;9.3;69.3
57799;BME280;43626;53.866;30.298;2022-10-24T04:19:10;1022.5;;;9.3;69.3
57799;BME280;43626;53.866;30.298;2022-10-24T04:23:46;1022.4;;;9.3;69
57799;BME280;43626;53.866;30.298;2022-10-24T04:28:46;1022.4;;;9.2;68.5
57799;BME280;43626;53.866;30.298;2022-10-24T04:34:22;1022.4;;;9.2;68
57799;BME280;43626;53.866;30.298;2022-10-24T04:39:12;1022.3;;;9.1;68.1
57799;BME280;43626;53.866;30.298;2022-10-24T04:44:32;1022.4;;;9;68.4
57799;BME280;43626;53.866;30.298;2022-10-24T04:49:18;1022.4;;;9;68.7
57799;BME280;43626;53.866;30.298;2022-10-24T04:54:34;1022.5;;;9;68.8
57799;BME280;43626;53.866;30.298;2022-10-24T04:59:08;1022.6;;;8.9;68.7
57799;BME280;43626;53.866;30.298;2022-10-24T05:04:30;1022.7;;;8.9;68.7
57799;BME280;43626;53.866;30.298;2022-10-24T05:09:32;1022.7;;;8.9;68.6
57799;BME280;43626;53.866;30.298;2022-10-24T05:13:46;1022.7;;;8.9;68.5
57799;BME280;43626;53.866;30.298;2022-10-24T05:19:02;1022.7;;;8.9;68.3
57799;BME280;43626;53.866;30.298;2022-10-24T05:24:02;1022.8;;;8.9;68.1
57799;BME280;43626;53.866;30.298;2022-10-24T05:29:30;1022.9;;;8.9;68
57799;BME280;43626;53.866;30.298;2022-10-24T05:34:12;1022.9;;;8.9;68
57799;BME280;43626;53.866;30.298;2022-10-24T05:39:30;1023;;;8.9;68
57799;BME280;43626;53.866;30.298;2022-10-24T05:44:10;1023.2;;;8.9;68.4
57799;BME280;43626;53.866;30.298;2022-10-24T05:49:18;1023.3;;;8.9;68.6
57799;BME280;43626;53.866;30.298;2022-10-24T05:53:54;1023.3;;;8.9;68.8
57799;BME280;43626;53.866;30.298;2022-10-24T05:59:24;1023.4;;;8.9;68.8
57799;BME280;43626;53.866;30.298;2022-10-24T06:03:52;1023.4;;;8.9;68.9
57799;BME280;43626;53.866;30.298;2022-10-24T06:08:46;1023.5;;;9;68.9
57799;BME280;43626;53.866;30.298;2022-10-24T06:13:46;1023.4;;;8.9;68.9
57799;BME280;43626;53.866;30.298;2022-10-24T06:19:32;1023.4;;;8.9;68.8
57799;BME280;43626;53.866;30.298;2022-10-24T06:24:18;1023.4;;;8.8;68.9
57799;BME280;43626;53.866;30.298;2022-10-24T06:28:46;1023.4;;;8.8;69
57799;BME280;43626;53.866;30.298;2022-10-24T06:33:50;1023.4;;;8.9;69
57799;BME280;43626;53.866;30.298;2022-10-24T06:39:18;1023.4;;;8.9;68.7
57799;BME280;43626;53.866;30.298;2022-10-24T06:44:34;1023.4;;;8.9;69
57799;BME280;43626;53.866;30.298;2022-10-24T06:49:08;1023.5;;;9;68.9
57799;BME280;43626;53.866;30.298;2022-10-24T06:54:12;1023.6;;;9;68.7
57799;BME280;43626;53.866;30.298;2022-10-24T06:58:58;1023.7;;;9;68.9
57799;BME280;43626;53.866;30.298;2022-10-24T07:03:46;1023.7;;;9;68.8
57799;BME280;43626;53.866;30.298;2022-10-24T07:08:57;1023.8;;;9;68.8
57799;BME280;43626;53.866;30.298;2022-10-24T07:14:12;1023.8;;;9.1;68.5
57799;BME280;43626;53.866;30.298;2022-10-24T07:19:12;1023.8;;;9.1;68.4
57799;BME280;43626;53.866;30.298;2022-10-24T07:24:34;1023.8;;;9.1;68.4
57799;BME280;43626;53.866;30.298;2022-10-24T07:28:47;1023.9;;;9.2;68.1
57799;BME280;43626;53.866;30.298;2022-10-24T07:34:34;1024;;;9.2;68
57799;BME280;43626;53.866;30.298;2022-10-24T07:39:34;1023.9;;;9.3;68
57799;BME280;43626;53.866;30.298;2022-10-24T07:44:00;1023.9;;;9.3;67.9
57799;BME280;43626;53.866;30.298;2022-10-24T07:49:00;1023.9;;;9.5;68
57799;BME280;43626;53.866;30.298;2022-10-24T07:54:00;1023.9;;;9.5;67.8
57799;BME280;43626;53.866;30.298;2022-10-24T07:59:32;1023.9;;;9.6;67.7
57799;BME280;43626;53.866;30.298;2022-10-24T08:04:08;1023.8;;;9.6;67.6
57799;BME280;43626;53.866;30.298;2022-10-24T08:09:22;1024;;;9.7;67.4
57799;BME280;43626;53.866;30.298;2022-10-24T08:14:35;1024;;;9.7;67.1
57799;BME280;43626;53.866;30.298;2022-10-24T08:19:22;1024.1;;;9.7;67.1
57799;BME280;43626;53.866;30.298;2022-10-24T08:24:08;1024.1;;;9.8;66.8
57799;BME280;43626;53.866;30.298;2022-10-24T08:29:18;1024.1;;;9.8;66
57799;BME280;43626;53.866;30.298;2022-10-24T08:33:46;1024.1;;;9.7;66.4
57799;BME280;43626;53.866;30.298;2022-10-24T08:38:54;1024.1;;;9.8;66.7
57799;BME280;43626;53.866;30.298;2022-10-24T08:43:46;1024.1;;;9.8;66.5
57799;BME280;43626;53.866;30.298;2022-10-24T08:49:34;1024.2;;;9.9;66.6
57799;BME280;43626;53.866;30.298;2022-10-24T08:54:21;1024.3;;;10.1;66.3
57799;BME280;43626;53.866;30.298;2022-10-24T08:59:20;1024.3;;;10.1;65.9
57799;BME280;43626;53.866;30.298;2022-10-24T09:04:11;1024.3;;;10.1;65.9
57799;BME280;43626;53.866;30.298;2022-10-24T09:09:22;1024.4;;;10.2;65.3
57799;BME280;43626;53.866;30.298;2022-10-24T09:14:34;1024.3;;;10.2;64.9
57799;BME280;43626;53.866;30.298;2022-10-24T09:19:11;1024.2;;;10.3;63.6
57799;BME280;43626;53.866;30.298;2022-10-24T09:23:54;1024.2;;;10.3;63.8
57799;BME280;43626;53.866;30.298;2022-10-24T09:28:46;1024.3;;;10.3;63.4
57799;BME280;43626;53.866;30.298;2022-10-24T09:33:54;1024.3;;;10.4;62.9
57799;BME280;43626;53.866;30.298;2022-10-24T09:39:28;1024.3;;;10.3;62.8
57799;BME280;43626;53.866;30.298;2022-10-24T09:44:26;1024.3;;;10.2;63.3
57799;BME280;43626;53.866;30.298;2022-10-24T09:49:35;1024.4;;;10.2;63.6
57799;BME280;43626;53.866;30.298;2022-10-24T09:53:57;1024.3;;;10.1;63.6
57799;BME280;43626;53.866;30.298;2022-10-24T09:59:16;1024.4;;;10;63.8
57799;BME280;43626;53.866;30.298;2022-10-24T10:04:32;1024.5;;;9.8;63
57799;BME280;43626;53.866;30.298;2022-10-24T10:09:22;1024.5;;;9.5;62.3
57799;BME280;43626;53.866;30.298;2022-10-24T10:14:30;1024.5;;;9.3;62.1
57799;BME280;43626;53.866;30.298;2022-10-24T10:18:46;1024.5;;;9.2;62.5
57799;BME280;43626;53.866;30.298;2022-10-24T10:23:47;1024.4;;;9.2;62.5
57799;BME280;43626;53.866;30.298;2022-10-24T10:29:30;1024.4;;;9.3;61.5
57799;BME280;43626;53.866;30.298;2022-10-24T10:34:23;1024.5;;;9.4;61.3
57799;BME280;43626;53.866;30.298;2022-10-24T10:38:49;1024.5;;;9.4;60.8
57799;BME280;43626;53.866;30.298;2022-10-24T10:44:27;1024.6;;;9.5;60.1
57799;BME280;43626;53.866;30.298;2022-10-24T10:49:20;1024.5;;;9.6;59.5
57799;BME280;43626;53.866;30.298;2022-10-24T10:54:11;1024.5;;;9.6;58.8
57799;BME280;43626;53.866;30.298;2022-10-24T10:59:27;1024.4;;;9.7;58.2
57799;BME280;43626;53.866;30.298;2022-10-24T11:04:35;1024.4;;;9.8;57
57799;BME280;43626;53.866;30.298;2022-10-24T11:09:00;1024.4;;;9.8;56.2
57799;BME280;43626;53.866;30.298;2022-10-24T11:13:47;1024.5;;;9.8;56.8
57799;BME280;43626;53.866;30.298;2022-10-24T11:19:31;1024.5;;;10;56.8
57799;BME280;43626;53.866;30.298;2022-10-24T11:24:34;1024.4;;;10.1;56
57799;BME280;43626;53.866;30.298;2022-10-24T11:29:32;1024.5;;;10.2;56
57799;BME280;43626;53.866;30.298;2022-10-24T11:33:53;1024.5;;;10.4;56.3
57799;BME280;43626;53.866;30.298;2022-10-24T11:39:31;1024.5;;;10.4;56.3
57799;BME280;43626;53.866;30.298;2022-10-24T11:44:34;1024.5;;;10.5;56
57799;BME280;43626;53.866;30.298;2022-10-24T11:49:11;1024.4;;;10.5;56
57799;BME280;43626;53.866;30.298;2022-10-24T11:54:11;1024.5;;;10.5;55.6
57799;BME280;43626;53.866;30.298;2022-10-24T11:58:48;1024.4;;;10.5;54.3
57799;BME280;43626;53.866;30.298;2022-10-24T12:04:03;1024.4;;;10.4;53
57799;BME280;43626;53.866;30.298;2022-10-24T12:09:07;1024.4;;;10.5;52.5
57799;BME280;43626;53.866;30.298;2022-10-24T12:14:04;1024.3;;;10.4;51.7
57799;BME280;43626;53.866;30.298;2022-10-24T12:19:30;1024.2;;;10.4;52.1
57799;BME280;43626;53.866;30.298;2022-10-24T12:24:20;1024.1;;;10.4;52.2
57799;BME280;43626;53.866;30.298;2022-10-24T12:29:03;1024.2;;;10.5;52.6
57799;BME280;43626;53.866;30.298;2022-10-24T12:34:43;1024.1;;;10.6;52.3
57799;BME280;43626;53.866;30.298;2022-10-24T12:39:33;1024.2;;;10.7;52.4
57799;BME280;43626;53.866;30.298;2022-10-24T12:44:48;1024.3;;;10.7;52.5
57799;BME280;43626;53.866;30.298;2022-10-24T12:49:23;1024.2;;;10.7;52.8
57799;BME280;43626;53.866;30.298;2022-10-24T12:54:03;1024.2;;;10.7;52.6
57799;BME280;43626;53.866;30.298;2022-10-24T12:59:31;1024.3;;;10.7;52.3
57799;BME280;43626;53.866;30.298;2022-10-24T13:04:22;1024.2;;;10.8;52.7
57799;BME280;43626;53.866;30.298;2022-10-24T13:09:25;1024.3;;;10.7;52.7
57799;BME280;43626;53.866;30.298;2022-10-24T13:14:14;1024.2;;;10.7;52.8
57799;BME280;43626;53.866;30.298;2022-10-24T13:19:18;1024.3;;;10.7;53.1
57799;BME280;43626;53.866;30.298;2022-10-24T13:24:08;1024.2;;;10.7;53.2
57799;BME280;43626;53.866;30.298;2022-10-24T13:29:58;1024.3;;;10.7;53.5
57799;BME280;43626;53.866;30.298;2022-10-24T13:34:36;1024.3;;;10.7;53.8
57799;BME280;43626;53.866;30.298;2022-10-24T13:38:48;1024.3;;;10.7;54.2
57799;BME280;43626;53.866;30.298;2022-10-24T13:43:47;1024.3;;;10.7;54.4
57799;BME280;43626;53.866;30.298;2022-10-24T13:49:20;1024.4;;;10.7;54.6
57799;BME280;43626;53.866;30.298;2022-10-24T13:54:31;1024.4;;;10.7;54.8
57799;BME280;43626;53.866;30.298;2022-10-24T13:59:31;1024.3;;;10.6;55
57799;BME280;43626;53.866;30.298;2022-10-24T14:03:52;1024.3;;;10.5;55.7
57799;BME280;43626;53.866;30.298;2022-10-24T14:09:36;1024.2;;;10.5;56.4
57799;BME280;43626;53.866;30.298;2022-10-24T14:14:34;1024.1;;;10.5;56.8
57799;BME280;43626;53.866;30.298;2022-10-24T14:19:15;1024;;;10.5;57.2
57799;BME280;43626;53.866;30.298;2022-10-24T14:24:09;1024;;;10.5;57.4
57799;BME280;43626;53.866;30.298;2022-10-24T14:29:02;1024.1;;;10.4;57.8
57799;BME280;43626;53.866;30.298;2022-10-24T14:33:48;1024.1;;;10.4;58.1
57799;BME280;43626;53.866;30.298;2022-10-24T14:38:46;1024.1;;;10.3;58.2
57799;BME280;43626;53.866;30.298;2022-10-24T14:44:12;1024.1;;;10.2;58.5
57799;BME280;43626;53.866;30.298;2022-10-24T14:49:20;1024.2;;;10.1;59.1
57799;BME280;43626;53.866;30.298;2022-10-24T14:54:19;1024.3;;;10;59.5
57799;BME280;43626;53.866;30.298;2022-10-24T14:59:19;1024.4;;;9.9;59.7
57799;BME280;43626;53.866;30.298;2022-10-24T15:04:03;1024.4;;;9.9;59.9
57799;BME280;43626;53.866;30.298;2022-10-24T15:09:30;1024.5;;;9.8;60.3
57799;BME280;43626;53.866;30.298;2022-10-24T15:14:32;1024.5;;;9.7;60.5
57799;BME280;43626;53.866;30.298;2022-10-24T15:18:46;1024.5;;;9.6;60.6
57799;BME280;43626;53.866;30.298;2022-10-24T15:23:47;1024.5;;;9.6;60.6
57799;BME280;43626;53.866;30.298;2022-10-24T15:29:03;1024.5;;;9.5;60.9
57799;BME280;43626;53.866;30.298;2022-10-24T15:34:32;1024.5;;;9.4;61.1
57799;BME280;43626;53.866;30.298;2022-10-24T15:39:23;1024.5;;;9.3;61.3
57799;BME280;43626;53.866;30.298;2022-10-24T15:44:12;1024.5;;;9.2;61.5
57799;BME280;43626;53.866;30.298;2022-10-24T15:49:30;1024.5;;;9.1;62.1
57799;BME280;43626;53.866;30.298;2022-10-24T15:54:19;1024.5;;;9.1;62.3
57799;BME280;43626;53.866;30.298;2022-10-24T15:59:08;1024.6;;;9;62.3
57799;BME280;43626;53.866;30.298;2022-10-24T16:04:25;1024.6;;;8.9;62.5
57799;BME280;43626;53.866;30.298;2022-10-24T16:09:00;1024.6;;;8.8;63
57799;BME280;43626;53.866;30.298;2022-10-24T16:13:46;1024.5;;;8.8;63.1
57799;BME280;43626;53.866;30.298;2022-10-24T16:19:10;1024.6;;;8.7;63
57799;BME280;43626;53.866;30.298;2022-10-24T16:24:30;1024.7;;;8.7;63.1
57799;BME280;43626;53.866;30.298;2022-10-24T16:29:20;1024.7;;;8.7;63.1
57799;BME280;43626;53.866;30.298;2022-10-24T16:33:46;1024.7;;;8.7;63.3
57799;BME280;43626;53.866;30.298;2022-10-24T16:39:06;1024.7;;;8.6;63.4
57799;BME280;43626;53.866;30.298;2022-10-24T16:44:20;1024.7;;;8.6;63.6
57799;BME280;43626;53.866;30.298;2022-10-24T16:49:32;1024.7;;;8.5;63.5
57799;BME280;43626;53.866;30.298;2022-10-24T16:54:01;1024.7;;;8.5;63.6
57799;BME280;43626;53.866;30.298;2022-10-24T16:59:14;1024.8;;;8.4;63.7
57799;BME280;43626;53.866;30.298;2022-10-24T17:03:46;1024.8;;;8.3;63.8
57799;BME280;43626;53.866;30.298;2022-10-24T17:08:58;1024.8;;;8.3;63.9
57799;BME280;43626;53.866;30.298;2022-10-24T17:13:45;1024.8;;;8.3;63.8
57799;BME280;43626;53.866;30.298;2022-10-24T17:19:10;1024.8;;;8.3;63.9
57799;BME280;43626;53.866;30.298;2022-10-24T17:24:00;1024.8;;;8.3;63.9
57799;BME280;43626;53.866;30.298;2022-10-24T17:29:29;1024.8;;;8.2;63.9
57799;BME280;43626;53.866;30.298;2022-10-24T17:34:07;1024.9;;;8.2;63.8
57799;BME280;43626;53.866;30.298;2022-10-24T17:39:22;1024.9;;;8.2;64
57799;BME280;43626;53.866;30.298;2022-10-24T17:44:33;1025;;;8.1;64.3
57799;BME280;43626;53.866;30.298;2022-10-24T17:49:03;1025.1;;;8;64.6
57799;BME280;43626;53.866;30.298;2022-10-24T17:54:00;1025.1;;;7.9;64.7
57799;BME280;43626;53.866;30.298;2022-10-24T17:59:00;1025.2;;;7.9;64.1
57799;BME280;43626;53.866;30.298;2022-10-24T18:04:30;1025.2;;;7.8;63.9
57799;BME280;43626;53.866;30.298;2022-10-24T18:09:22;1025.2;;;7.7;63.9
57799;BME280;43626;53.866;30.298;2022-10-24T18:13:48;1025.2;;;7.7;63.9
57799;BME280;43626;53.866;30.298;2022-10-24T18:19:22;1025.2;;;7.6;63.8
57799;BME280;43626;53.866;30.298;2022-10-24T18:24:16;1025.2;;;7.5;63.7
57799;BME280;43626;53.866;30.298;2022-10-24T18:28:47;1025.2;;;7.5;63.6
57799;BME280;43626;53.866;30.298;2022-10-24T18:34:22;1025.2;;;7.5;63.7
57799;BME280;43626;53.866;30.298;2022-10-24T18:39:03;1025.1;;;7.4;63.9
57799;BME280;43626;53.866;30.298;2022-10-24T18:44:01;1025.1;;;7.4;64.1
57799;BME280;43626;53.866;30.298;2022-10-24T18:49:03;1025.1;;;7.4;64.1
57799;BME280;43626;53.866;30.298;2022-10-24T18:54:30;1025.1;;;7.3;63.8
57799;BME280;43626;53.866;30.298;2022-10-24T18:59:20;1025.1;;;7.3;63.5
57799;BME280;43626;53.866;30.298;2022-10-24T19:04:01;1025.1;;;7.2;63.7
57799;BME280;43626;53.866;30.298;2022-10-24T19:08:46;1025.1;;;7.2;63.8
57799;BME280;43626;53.866;30.298;2022-10-24T19:14:21;1025.1;;;7.2;63.7
57799;BME280;43626;53.866;30.298;2022-10-24T19:19:29;1025.2;;;7.1;64
57799;BME280;43626;53.866;30.298;2022-10-24T19:23:46;1025.3;;;7.1;64
57799;BME280;43626;53.866;30.298;2022-10-24T19:29:08;1025.2;;;7.1;64.1
57799;BME280;43626;53.866;30.298;2022-10-24T19:34:00;1025.1;;;7.1;64.2
57799;BME280;43626;53.866;30.298;2022-10-24T19:38:53;1025.1;;;7.1;64.4
57799;BME280;43626;53.866;30.298;2022-10-24T19:43:46;1025.1;;;7.1;64.7
57799;BME280;43626;53.866;30.298;2022-10-24T19:48:56;1025.1;;;7.1;64.8
57799;BME280;43626;53.866;30.298;2022-10-24T19:54:26;1025;;;7.1;64.7
57799;BME280;43626;53.866;30.298;2022-10-24T19:59:14;1025.1;;;7.1;64.6
57799;BME280;43626;53.866;30.298;2022-10-24T20:04:16;1025.1;;;7.1;64.9
57799;BME280;43626;53.866;30.298;2022-10-24T20:09:30;1025.1;;;7.1;65.1
57799;BME280;43626;53.866;30.298;2022-10-24T20:14:18;1025.2;;;7.1;65.2
57799;BME280;43626;53.866;30.298;2022-10-24T20:19:32;1025.2;;;7.1;65.2
57799;BME280;43626;53.866;30.298;2022-10-24T20:24:30;1025.2;;;7;65.3
57799;BME280;43626;53.866;30.298;2022-10-24T20:28:47;1025.2;;;7;65.4
57799;BME280;43626;53.866;30.298;2022-10-24T20:34:30;1025.1;;;7.1;65.5
57799;BME280;43626;53.866;30.298;2022-10-24T20:39:22;1025.1;;;7.1;65.9
57799;BME280;43626;53.866;30.298;2022-10-24T20:44:01;1025;;;7.1;65.7
57799;BME280;43626;53.866;30.298;2022-10-24T20:49:22;1025;;;7.2;65.8
57799;BME280;43626;53.866;30.298;2022-10-24T20:54:17;1024.9;;;7.2;65.8
57799;BME280;43626;53.866;30.298;2022-10-24T20:59:10;1024.8;;;7.3;66.1
57799;BME280;43626;53.866;30.298;2022-10-24T21:04:22;1024.8;;;7.3;66.1
57799;BME280;43626;53.866;30.298;2022-10-24T21:09:30;1024.8;;;7.4;66.2
57799;BME280;43626;53.866;30.298;2022-10-24T21:14:09;1024.7;;;7.4;66.2
57799;BME280;43626;53.866;30.298;2022-10-24T21:19:01;1024.7;;;7.4;66.2
57799;BME280;43626;53.866;30.298;2022-10-24T21:24:28;1024.8;;;7.5;66.2
57799;BME280;43626;53.866;30.298;2022-10-24T21:29:32;1024.8;;;7.5;66.4
57799;BME280;43626;53.866;30.298;2022-10-24T21:34:30;1024.8;;;7.5;66.6
57799;BME280;43626;53.866;30.298;2022-10-24T21:39:10;1024.7;;;7.5;66.7
57799;BME280;43626;53.866;30.298;2022-10-24T21:44:32;1024.7;;;7.6;66.8
57799;BME280;43626;53.866;30.298;2022-10-24T21:49:32;1024.7;;;7.6;66.9
57799;BME280;43626;53.866;30.298;2022-10-24T21:54:13;1024.8;;;7.6;66.9
57799;BME280;43626;53.866;30.298;2022-10-24T21:59:16;1024.9;;;7.7;66.9
57799;BME280;43626;53.866;30.298;2022-10-24T22:03:47;1025;;;7.7;66.8
57799;BME280;43626;53.866;30.298;2022-10-24T22:08:53;1025.1;;;7.7;66.9
57799;BME280;43626;53.866;30.298;2022-10-24T22:13:47;1025;;;7.7;66.9
57799;BME280;43626;53.866;30.298;2022-10-24T22:19:13;1025;;;7.7;66.9
57799;BME280;43626;53.866;30.298;2022-10-24T22:24:31;1024.9;;;7.7;67
57799;BME280;43626;53.866;30.298;2022-10-24T22:28:49;1024.9;;;7.7;67.1
57799;BME280;43626;53.866;30.298;2022-10-24T22:34:13;1024.9;;;7.7;67.1
57799;BME280;43626;53.866;30.298;2022-10-24T22:39:33;1024.9;;;7.7;67.1
57799;BME280;43626;53.866;30.298;2022-10-24T22:44:01;1025;;;7.8;67.1
57799;BME280;43626;53.866;30.298;2022-10-24T22:49:36;1024.9;;;7.7;67.2
57799;BME280;43626;53.866;30.298;2022-10-24T22:53:47;1024.9;;;7.8;67.2
57799;BME280;43626;53.866;30.298;2022-10-24T22:59:01;1024.8;;;7.8;67.1
57799;BME280;43626;53.866;30.298;2022-10-24T23:04:33;1024.7;;;7.8;67.1
57799;BME280;43626;53.866;30.298;2022-10-24T23:09:23;1024.7;;;7.8;66.9
57799;BME280;43626;53.866;30.298;2022-10-24T23:14:11;1024.7;;;7.8;66.8
57799;BME280;43626;53.866;30.298;2022-10-24T23:19:21;1024.8;;;7.8;66.9
57799;BME280;43626;53.866;30.298;2022-10-24T23:24:08;1024.7;;;7.8;66.9
57799;BME280;43626;53.866;30.298;2022-10-24T23:29:09;1024.7;;;7.8;66.9
57799;BME280;43626;53.866;30.298;2022-10-24T23:34:23;1024.7;;;7.7;66.9
57799;BME280;43626;53.866;30.298;2022-10-24T23:39:30;1024.7;;;7.7;66.9
57799;BME280;43626;53.866;30.298;2022-10-24T23:44:09;1024.7;;;7.7;66.9
57799;BME280;43626;53.866;30.298;2022-10-24T23:49:02;1024.7;;;7.7;66.9
57799;BME280;43626;53.866;30.298;2022-10-24T23:54:17;1024.7;;;7.8;66.8
57799;BME280;43626;53.866;30.298;2022-10-24T23:59:29;1024.7;;;7.8;66.9
